메인 페이지
METAR-TAF:

METAR-TAF

공항 :

말레 국제공항

말레, 몰디브

위도: 04-12N, 경도: 073-32E, 고도: 2m

현재 날씨관측

예보는 1 시간 44분 전, 20:00시(UTC)에 발표되었습니다.
남서12kt
온도 28°C
습도 89%
기압 1008 hPa
시정: 7000m
고도 26000ft 상공 구름 많음
약한소나기

METAR: VRMM 222000Z 23012KT 7000 -SHRA FEW017TC BKN260 28/26 Q1008 TEMPO 5000 -SHRA

시각: 02:44 (21:44 UTC)

예보

예보는 4 시간 44분 전, 17:00시(UTC)에 발표되었습니다.
예보 대상 시간: 22일 18시부터 23일 24시까지 (UTC)
남서11kt
시정 10km 이상
고도 1700ft 상공 구름 조금
고도 11000ft 상공 구름 많음
일시적
22일 18시부터 22일 24시까지 (UTC)
시정: 3000m
고도 1700ft 상공 구름 조금, 적란운.
고도 10000ft 상공 흐림
뇌우, 비

TAF: VRMM 221700Z 2218/2324 23011KT 9999 FEW017 BKN110 TEMPO 2218/2224 3000 TSRA FEW017CB OVC100

4,000개 이상의 공항 관측 자료 및 예보 (METAR 및 TAF 보고).

지도상에서 검색 가능한 기상관측소가 노란 점과 빨간 점으로 표시되어 있습니다.

기상관측소 명을 보려면 표시 위로 마우스를 이동하세요.

날씨 관측과 예보를 보려면 클릭하세요.

지도 변경 : 확대하려면 엑스 표시가 있는 녹색 버튼, 축소하려면 빼기 표시가 있는 녹색 버튼, 다음 페이지의 지도를 보려면 녹색 화살표를 클릭하세요.


METAR-TAF: